Terminal Aerodrome Forecast
Issued by NWS Cleveland, OH

Home | Current Version | Previous Version | Text Only | Print | Product List | Glossary Off
Versions: 1 2 3 4 5 6 7 8 9 10 11 12 13 14 15 16 17 18 19

560
FTUS41 KCLE 101138
TAFCAK
TAF
KCAK 101138Z 1012/1112 24012G20KT 6SM -SHSN BKN015 OVC035
      TEMPO 1012/1016 2SM -SHSN OVC015
     FM101600 25015G22KT 3SM -SHSN BKN015 OVC025
      TEMPO 1016/1020 1SM -SHSN OVC015
     FM102000 27015G22KT 3SM -SHSN OVC025
     FM110600 28010KT P6SM BKN025=

USA.gov is the U.S. government's official web portal to all federal, state and local government web resources and services.